createdAt,value
2019-05-15T00:00:15.321Z,1023.54
2019-05-15T00:01:15.298Z,1023.54
2019-05-15T00:02:15.286Z,1023.58
2019-05-15T00:03:15.284Z,1023.53
2019-05-15T00:04:15.279Z,1023.51
2019-05-15T00:05:15.256Z,1023.49
2019-05-15T00:06:15.258Z,1023.46
2019-05-15T00:07:15.232Z,1023.48
2019-05-15T00:08:15.220Z,1023.49
2019-05-15T00:09:15.209Z,1023.46
2019-05-15T00:10:15.225Z,1023.50
2019-05-15T00:11:15.190Z,1023.48
2019-05-15T00:12:15.181Z,1023.49
2019-05-15T00:13:15.184Z,1023.51
2019-05-15T00:14:15.157Z,1023.47
2019-05-15T00:15:15.142Z,1023.45
2019-05-15T00:16:15.157Z,1023.45
2019-05-15T00:17:15.124Z,1023.47
2019-05-15T00:18:15.110Z,1023.41
2019-05-15T00:19:15.110Z,1023.40
2019-05-15T00:20:15.089Z,1023.43
2019-05-15T00:21:15.077Z,1023.36
2019-05-15T00:22:15.085Z,1023.37
2019-05-15T00:23:15.053Z,1023.38
2019-05-15T00:24:15.050Z,1023.37
2019-05-15T00:25:15.046Z,1023.39
2019-05-15T00:26:15.023Z,1023.36
2019-05-15T00:27:15.013Z,1023.30
2019-05-15T00:28:15.017Z,1023.32
2019-05-15T00:29:16.265Z,1023.31
2019-05-15T00:30:14.978Z,1023.32
2019-05-15T00:31:14.977Z,1023.31
2019-05-15T00:32:14.959Z,1023.33
2019-05-15T00:33:14.970Z,1023.30
2019-05-15T00:34:14.940Z,1023.30
2019-05-15T00:35:14.925Z,1023.32
2019-05-15T00:36:14.914Z,1023.29
2019-05-15T00:37:14.889Z,1023.28
2019-05-15T00:38:14.900Z,1023.28
2019-05-15T00:39:14.886Z,1023.27
2019-05-15T00:40:14.860Z,1023.30
2019-05-15T00:41:14.848Z,1023.27
2019-05-15T00:42:14.840Z,1023.31
2019-05-15T00:43:14.826Z,1023.30
2019-05-15T00:44:14.844Z,1023.33
2019-05-15T00:45:14.816Z,1023.30
2019-05-15T00:46:14.794Z,1023.30
2019-05-15T00:47:14.776Z,1023.27
2019-05-15T00:48:14.763Z,1023.27
2019-05-15T00:49:14.766Z,1023.23
2019-05-15T00:50:14.760Z,1023.25
2019-05-15T00:51:14.906Z,1023.24
2019-05-15T00:52:14.719Z,1023.25
2019-05-15T00:53:14.713Z,1023.24
2019-05-15T00:54:14.719Z,1023.23
2019-05-15T00:55:14.687Z,1023.23
2019-05-15T00:56:14.690Z,1023.22
2019-05-15T00:57:14.668Z,1023.21
2019-05-15T00:58:14.655Z,1023.23
2019-05-15T00:59:24.086Z,1023.23
2019-05-15T01:00:15.647Z,1023.20
2019-05-15T01:01:14.636Z,1023.23
2019-05-15T01:02:14.643Z,1023.19
2019-05-15T01:03:14.601Z,1023.22
2019-05-15T01:04:14.599Z,1023.23
2019-05-15T01:05:14.595Z,1023.23
2019-05-15T01:06:14.571Z,1023.24
2019-05-15T01:07:14.559Z,1023.21
2019-05-15T01:08:14.566Z,1023.22
2019-05-15T01:09:14.537Z,1023.24
2019-05-15T01:10:14.534Z,1023.16
2019-05-15T01:11:14.532Z,1023.14
2019-05-15T01:12:14.502Z,1023.13
2019-05-15T01:13:14.502Z,1023.10
2019-05-15T01:14:14.505Z,1023.17
2019-05-15T01:15:14.468Z,1023.10
2019-05-15T01:16:14.461Z,1023.04
2019-05-15T01:17:14.469Z,1023.06
2019-05-15T01:18:14.435Z,1023.06
2019-05-15T01:19:15.080Z,1023.03
2019-05-15T01:20:14.443Z,1023.05
2019-05-15T01:21:14.404Z,1023.01
2019-05-15T01:22:14.393Z,1022.99
2019-05-15T01:23:14.399Z,1022.97
2019-05-15T01:24:14.375Z,1022.96
2019-05-15T01:25:14.360Z,1023.03
2019-05-15T01:26:14.380Z,1023.00
2019-05-15T01:27:14.338Z,1022.98
2019-05-15T01:28:14.332Z,1023.01
2019-05-15T01:29:14.332Z,1023.06
2019-05-15T01:30:14.304Z,1023.05
2019-05-15T01:31:14.294Z,1023.05
2019-05-15T01:32:14.302Z,1023.06
2019-05-15T01:33:14.286Z,1023.06
2019-05-15T01:34:14.283Z,1023.03
2019-05-15T01:35:14.248Z,1023.03
2019-05-15T01:36:14.241Z,1023.04
2019-05-15T01:37:14.227Z,1023.04
2019-05-15T01:38:14.218Z,1023.06
2019-05-15T01:39:14.214Z,1023.05
2019-05-15T01:40:14.211Z,1023.04
2019-05-15T01:41:14.185Z,1023.05
2019-05-15T01:42:14.175Z,1023.00
2019-05-15T01:43:14.160Z,1022.97
2019-05-15T01:44:14.155Z,1022.97
2019-05-15T01:45:14.167Z,1022.96
2019-05-15T01:46:14.142Z,1022.91
2019-05-15T01:47:14.121Z,1022.98
2019-05-15T01:48:14.107Z,1023.00
2019-05-15T01:49:14.106Z,1023.01
2019-05-15T01:50:14.088Z,1023.05
2019-05-15T01:51:14.109Z,1023.06
2019-05-15T01:52:14.064Z,1023.01
2019-05-15T01:53:14.052Z,1023.03
2019-05-15T01:54:14.041Z,1023.03
2019-05-15T01:55:14.028Z,1023.07
2019-05-15T01:56:14.031Z,1023.05
2019-05-15T01:57:14.038Z,1023.06
2019-05-15T01:58:14.007Z,1023.02
2019-05-15T01:59:13.997Z,1023.03
2019-05-15T02:00:13.977Z,1023.01
2019-05-15T02:01:13.963Z,1023.03
2019-05-15T02:02:13.975Z,1023.03
2019-05-15T02:03:13.958Z,1023.05
2019-05-15T02:04:13.927Z,1023.01
2019-05-15T02:05:13.929Z,1023.02
2019-05-15T02:06:13.918Z,1023.06
2019-05-15T02:07:13.899Z,1023.04
2019-05-15T02:08:13.905Z,1023.09
2019-05-15T02:09:13.872Z,1023.08
2019-05-15T02:10:13.863Z,1023.05
2019-05-15T02:11:13.869Z,1023.09
2019-05-15T02:12:13.842Z,1023.07
2019-05-15T02:13:13.832Z,1023.07
2019-05-15T02:14:13.836Z,1023.09
2019-05-15T02:15:13.805Z,1023.10
2019-05-15T02:16:13.799Z,1023.07
2019-05-15T02:17:13.805Z,1023.10
2019-05-15T02:18:13.775Z,1023.03
2019-05-15T02:19:13.762Z,1023.05
2019-05-15T02:20:13.762Z,1023.08
2019-05-15T02:21:13.741Z,1023.11
2019-05-15T02:22:13.727Z,1023.09
2019-05-15T02:23:13.734Z,1023.11
2019-05-15T02:24:13.710Z,1023.13
2019-05-15T02:25:13.697Z,1023.15
2019-05-15T02:26:13.685Z,1023.09
2019-05-15T02:27:13.691Z,1023.12
2019-05-15T02:28:13.683Z,1023.13
2019-05-15T02:29:16.598Z,1023.11
2019-05-15T02:30:24.185Z,1023.14
2019-05-15T02:31:14.648Z,1023.13
2019-05-15T02:32:13.620Z,1023.11
2019-05-15T02:33:13.629Z,1023.15
2019-05-15T02:34:13.613Z,1023.16
2019-05-15T02:35:13.597Z,1023.06
2019-05-15T02:36:13.586Z,1023.07
2019-05-15T02:37:13.567Z,1023.04
2019-05-15T02:38:15.526Z,1023.08
2019-05-15T02:39:13.566Z,1023.09
2019-05-15T02:40:13.534Z,1023.05
2019-05-15T02:41:13.537Z,1023.04
2019-05-15T02:42:13.508Z,1023.04
2019-05-15T02:43:13.502Z,1023.05
2019-05-15T02:44:13.488Z,1023.02
2019-05-15T02:45:13.502Z,1023.02
2019-05-15T02:46:13.462Z,1023.06
2019-05-15T02:47:13.463Z,1023.00
2019-05-15T02:48:13.445Z,1023.04
2019-05-15T02:49:13.483Z,1022.96
2019-05-15T02:50:13.419Z,1022.97
2019-05-15T02:51:13.409Z,1022.96
2019-05-15T02:52:13.457Z,1022.93
2019-05-15T02:53:13.388Z,1022.92
2019-05-15T02:54:13.374Z,1022.92
2019-05-15T02:55:13.364Z,1022.94
2019-05-15T02:56:13.382Z,1022.95
2019-05-15T02:57:13.343Z,1022.95
2019-05-15T02:58:13.341Z,1022.96
2019-05-15T02:59:13.345Z,1022.94
2019-05-15T03:00:32.653Z,1022.98
2019-05-15T03:01:14.307Z,1022.93
2019-05-15T03:02:13.289Z,1022.95
2019-05-15T03:03:13.289Z,1022.97
2019-05-15T03:04:13.276Z,1023.00
2019-05-15T03:05:13.272Z,1022.99
2019-05-15T03:06:13.260Z,1022.95
2019-05-15T03:07:13.230Z,1022.99
2019-05-15T03:08:13.220Z,1022.99
2019-05-15T03:09:13.225Z,1022.98
2019-05-15T03:10:13.213Z,1023.02
2019-05-15T03:11:13.212Z,1023.01
2019-05-15T03:12:13.181Z,1023.04
2019-05-15T03:13:13.178Z,1023.04
2019-05-15T03:14:13.160Z,1023.02
2019-05-15T03:15:13.148Z,1023.05
2019-05-15T03:16:13.145Z,1023.05
2019-05-15T03:17:13.138Z,1023.05
2019-05-15T03:18:13.110Z,1023.05
2019-05-15T03:19:13.101Z,1023.03
2019-05-15T03:20:13.092Z,1023.04
2019-05-15T03:21:13.095Z,1023.08
2019-05-15T03:22:13.065Z,1023.09
2019-05-15T03:23:13.095Z,1023.08
2019-05-15T03:24:13.044Z,1023.10
2019-05-15T03:25:13.030Z,1023.06
2019-05-15T03:26:13.020Z,1023.14
2019-05-15T03:27:13.023Z,1023.13
2019-05-15T03:28:13.000Z,1023.17
2019-05-15T03:29:13.005Z,1023.13
2019-05-15T03:30:14.728Z,1023.10
2019-05-15T03:31:32.274Z,1023.09
2019-05-15T03:32:24.816Z,1023.09
2019-05-15T03:33:24.971Z,1023.09
2019-05-15T03:34:21.448Z,1023.04
2019-05-15T03:35:15.641Z,1023.00
2019-05-15T03:36:14.055Z,1023.08
2019-05-15T03:37:13.187Z,1023.09
2019-05-15T03:38:12.914Z,1023.09
2019-05-15T03:39:12.893Z,1023.07
2019-05-15T03:40:12.866Z,1023.08
2019-05-15T03:41:12.879Z,1023.03
2019-05-15T03:42:12.844Z,1023.01
2019-05-15T03:43:12.831Z,1023.02
2019-05-15T03:44:12.845Z,1023.02
2019-05-15T03:45:12.816Z,1023.04
2019-05-15T03:46:12.805Z,1022.98
2019-05-15T03:47:12.789Z,1022.99
2019-05-15T03:48:12.815Z,1022.99
2019-05-15T03:49:12.799Z,1023.01
2019-05-15T03:50:12.772Z,1023.00
2019-05-15T03:51:12.747Z,1023.02
2019-05-15T03:52:12.737Z,1022.98
2019-05-15T03:53:12.728Z,1023.00
2019-05-15T03:54:12.743Z,1022.97
2019-05-15T03:55:12.709Z,1022.97
2019-05-15T03:56:12.689Z,1022.96
2019-05-15T03:57:12.686Z,1022.97
2019-05-15T03:58:12.679Z,1023.00
2019-05-15T03:59:12.658Z,1022.96
2019-05-15T04:00:12.656Z,1022.99
2019-05-15T04:01:28.481Z,1023.03
2019-05-15T04:02:13.623Z,1022.99
2019-05-15T04:03:12.616Z,1023.00
2019-05-15T04:04:12.615Z,1023.03
2019-05-15T04:05:12.613Z,1022.98
2019-05-15T04:06:12.595Z,1022.98
2019-05-15T04:07:12.579Z,1022.97
2019-05-15T04:08:12.557Z,1022.92
2019-05-15T04:09:12.553Z,1022.93
2019-05-15T04:10:12.539Z,1022.95
2019-05-15T04:11:12.539Z,1022.96
2019-05-15T04:12:12.517Z,1022.97
2019-05-15T04:13:12.509Z,1022.98
2019-05-15T04:14:12.491Z,1022.92
2019-05-15T04:15:12.494Z,1022.95
2019-05-15T04:16:12.483Z,1022.98
2019-05-15T04:17:12.462Z,1022.93
2019-05-15T04:18:12.442Z,1022.97
2019-05-15T04:19:12.432Z,1022.99
2019-05-15T04:20:12.441Z,1022.96
2019-05-15T04:21:12.412Z,1022.96
2019-05-15T04:22:12.422Z,1022.95
2019-05-15T04:23:12.397Z,1022.91
2019-05-15T04:24:12.379Z,1022.98
2019-05-15T04:25:12.366Z,1022.98
2019-05-15T04:26:12.373Z,1022.96
2019-05-15T04:27:12.460Z,1022.95
2019-05-15T04:28:12.347Z,1022.95
2019-05-15T04:29:12.322Z,1022.96
2019-05-15T04:30:12.316Z,1022.96
2019-05-15T04:31:12.304Z,1022.94
2019-05-15T04:32:12.307Z,1022.92
2019-05-15T04:33:12.291Z,1022.88
2019-05-15T04:34:12.269Z,1022.86
2019-05-15T04:35:12.258Z,1022.90
2019-05-15T04:36:12.249Z,1022.90
2019-05-15T04:37:12.244Z,1022.96
2019-05-15T04:38:12.250Z,1022.95
2019-05-15T04:39:12.217Z,1022.97
2019-05-15T04:40:12.246Z,1022.96
2019-05-15T04:41:12.189Z,1022.92
2019-05-15T04:42:12.184Z,1022.93
2019-05-15T04:43:12.173Z,1022.97
2019-05-15T04:44:12.175Z,1022.92
2019-05-15T04:45:12.148Z,1022.93
2019-05-15T04:46:12.158Z,1022.94
2019-05-15T04:47:12.124Z,1022.97
2019-05-15T04:48:12.130Z,1022.94
2019-05-15T04:49:12.104Z,1022.97
2019-05-15T04:50:12.102Z,1022.97
2019-05-15T04:51:12.083Z,1022.97
2019-05-15T04:52:12.106Z,1022.98
2019-05-15T04:53:12.056Z,1022.97
2019-05-15T04:54:12.044Z,1022.97
2019-05-15T04:55:12.052Z,1022.98
2019-05-15T04:56:12.033Z,1022.96
2019-05-15T04:57:12.012Z,1022.99
2019-05-15T04:58:12.019Z,1022.99
2019-05-15T04:59:11.990Z,1022.97
2019-05-15T05:00:11.981Z,1022.96
2019-05-15T05:01:11.986Z,1022.99
2019-05-15T05:02:17.320Z,1022.98
2019-05-15T05:03:12.953Z,1023.02
2019-05-15T05:04:11.943Z,1023.01
2019-05-15T05:05:11.934Z,1023.03
2019-05-15T05:06:11.920Z,1023.01
2019-05-15T05:07:11.933Z,1023.04
2019-05-15T05:08:11.950Z,1023.06
2019-05-15T05:09:11.881Z,1023.06
2019-05-15T05:10:11.880Z,1023.04
2019-05-15T05:11:11.873Z,1023.04
2019-05-15T05:12:11.851Z,1023.11
2019-05-15T05:13:11.880Z,1023.03
2019-05-15T05:14:11.869Z,1023.06
2019-05-15T05:15:11.888Z,1023.04
2019-05-15T05:16:11.814Z,1023.06
2019-05-15T05:17:11.827Z,1023.04
2019-05-15T05:18:11.783Z,1023.04
2019-05-15T05:19:11.788Z,1023.04
2019-05-15T05:20:11.789Z,1023.02
2019-05-15T05:21:11.753Z,1023.03
2019-05-15T05:22:11.767Z,1023.06
2019-05-15T05:23:11.728Z,1023.11
2019-05-15T05:24:11.732Z,1023.09
2019-05-15T05:25:11.741Z,1023.12
2019-05-15T05:26:11.699Z,1023.12
2019-05-15T05:27:11.687Z,1023.13
2019-05-15T05:28:11.715Z,1023.07
2019-05-15T05:29:11.690Z,1023.10
2019-05-15T05:30:11.662Z,1023.10
2019-05-15T05:31:14.107Z,1023.15
2019-05-15T05:32:11.637Z,1023.21
2019-05-15T05:33:11.625Z,1023.22
2019-05-15T05:34:11.616Z,1023.24
2019-05-15T05:35:11.601Z,1023.23
2019-05-15T05:36:11.599Z,1023.26
2019-05-15T05:37:11.591Z,1023.22
2019-05-15T05:38:11.575Z,1023.23
2019-05-15T05:39:15.297Z,1023.19
2019-05-15T05:40:12.540Z,1023.24
2019-05-15T05:41:11.561Z,1023.25
2019-05-15T05:42:11.535Z,1023.25
2019-05-15T05:43:11.513Z,1023.24
2019-05-15T05:44:11.533Z,1023.19
2019-05-15T05:45:11.485Z,1023.26
2019-05-15T05:46:11.508Z,1023.27
2019-05-15T05:47:11.473Z,1023.24
2019-05-15T05:48:11.453Z,1023.23
2019-05-15T05:49:11.449Z,1023.21
2019-05-15T05:50:11.457Z,1023.26
2019-05-15T05:51:11.462Z,1023.21
2019-05-15T05:52:11.426Z,1023.22
2019-05-15T05:53:11.400Z,1023.23
2019-05-15T05:54:11.389Z,1023.28
2019-05-15T05:55:11.379Z,1023.30
2019-05-15T05:56:11.382Z,1023.30
2019-05-15T05:57:11.354Z,1023.29
2019-05-15T05:58:11.351Z,1023.31
2019-05-15T05:59:11.349Z,1023.33
2019-05-15T06:00:11.350Z,1023.32
2019-05-15T06:01:11.318Z,1023.27
2019-05-15T06:02:11.334Z,1023.29
2019-05-15T06:03:11.314Z,1023.29
2019-05-15T06:04:11.296Z,1023.27
2019-05-15T06:05:11.265Z,1023.28
2019-05-15T06:06:11.257Z,1023.30
2019-05-15T06:07:14.189Z,1023.34
2019-05-15T06:08:11.232Z,1023.27
2019-05-15T06:09:11.260Z,1023.30
2019-05-15T06:10:11.226Z,1023.28
2019-05-15T06:11:11.205Z,1023.26
2019-05-15T06:12:11.187Z,1023.28
2019-05-15T06:13:11.232Z,1023.26
2019-05-15T06:14:11.165Z,1023.31
2019-05-15T06:15:11.158Z,1023.30
2019-05-15T06:16:11.194Z,1023.28
2019-05-15T06:17:11.140Z,1023.29
2019-05-15T06:18:11.121Z,1023.30
2019-05-15T06:19:11.119Z,1023.33
2019-05-15T06:20:11.099Z,1023.32
2019-05-15T06:21:11.129Z,1023.40
2019-05-15T06:22:11.091Z,1023.42
2019-05-15T06:23:11.095Z,1023.37
2019-05-15T06:24:13.216Z,1023.41
2019-05-15T06:25:11.871Z,1023.37
2019-05-15T06:26:11.038Z,1023.35
2019-05-15T06:27:11.041Z,1023.33
2019-05-15T06:28:11.025Z,1023.33
2019-05-15T06:29:11.016Z,1023.39
2019-05-15T06:30:18.595Z,1023.41
2019-05-15T06:31:11.980Z,1023.39
2019-05-15T06:32:10.963Z,1023.47
2019-05-15T06:33:13.527Z,1023.49
2019-05-15T06:34:10.942Z,1023.48
2019-05-15T06:35:10.930Z,1023.42
2019-05-15T06:36:10.929Z,1023.44
2019-05-15T06:37:10.908Z,1023.41
2019-05-15T06:38:10.949Z,1023.38
2019-05-15T06:39:10.887Z,1023.40
2019-05-15T06:40:10.876Z,1023.39
2019-05-15T06:41:10.929Z,1023.39
2019-05-15T06:42:10.857Z,1023.39
2019-05-15T06:43:10.845Z,1023.36
2019-05-15T06:44:10.844Z,1023.37
2019-05-15T06:45:10.831Z,1023.39
2019-05-15T06:46:10.811Z,1023.35
2019-05-15T06:47:10.801Z,1023.31
2019-05-15T06:48:10.839Z,1023.29
2019-05-15T06:49:10.777Z,1023.28
2019-05-15T06:50:10.782Z,1023.30
2019-05-15T06:51:10.755Z,1023.27
2019-05-15T06:52:10.746Z,1023.28
2019-05-15T06:53:11.057Z,1023.30
2019-05-15T06:54:10.734Z,1023.28
2019-05-15T06:55:10.713Z,1023.29
2019-05-15T06:56:10.732Z,1023.32
2019-05-15T06:57:10.707Z,1023.25
2019-05-15T06:58:10.697Z,1023.25
2019-05-15T06:59:10.689Z,1023.15
2019-05-15T07:00:10.653Z,1023.23
2019-05-15T07:01:10.700Z,1023.19
2019-05-15T07:02:10.661Z,1023.27
2019-05-15T07:03:21.446Z,1023.26
2019-05-15T07:04:11.634Z,1023.33
2019-05-15T07:05:10.608Z,1023.25
2019-05-15T07:06:10.606Z,1023.29
2019-05-15T07:07:11.199Z,1023.22
2019-05-15T07:08:10.568Z,1023.23
2019-05-15T07:09:10.613Z,1023.23
2019-05-15T07:10:10.560Z,1023.24
2019-05-15T07:11:10.532Z,1023.17
2019-05-15T07:12:10.588Z,1023.15
2019-05-15T07:13:10.512Z,1023.23
2019-05-15T07:14:10.521Z,1023.16
2019-05-15T07:15:10.493Z,1023.17
2019-05-15T07:16:10.476Z,1023.12
2019-05-15T07:17:10.472Z,1023.13
2019-05-15T07:18:10.473Z,1023.19
2019-05-15T07:19:10.443Z,1023.17
2019-05-15T07:20:10.451Z,1023.21
2019-05-15T07:21:10.675Z,1023.16
2019-05-15T07:22:10.417Z,1023.20
2019-05-15T07:23:10.431Z,1023.17
2019-05-15T07:24:10.389Z,1023.17
2019-05-15T07:25:10.393Z,1023.12
2019-05-15T07:26:10.371Z,1023.14
2019-05-15T07:27:10.364Z,1023.13
2019-05-15T07:28:10.348Z,1023.20
2019-05-15T07:29:10.344Z,1023.15
2019-05-15T07:30:12.227Z,1023.10
2019-05-15T07:31:11.537Z,1023.16
2019-05-15T07:32:10.310Z,1023.11
2019-05-15T07:33:10.352Z,1023.08
2019-05-15T07:34:10.296Z,1023.11
2019-05-15T07:35:10.269Z,1023.09
2019-05-15T07:36:10.273Z,1023.08
2019-05-15T07:37:10.244Z,1023.12
2019-05-15T07:38:10.237Z,1023.15
2019-05-15T07:39:10.230Z,1023.06
2019-05-15T07:40:10.224Z,1023.08
2019-05-15T07:41:10.638Z,1023.05
2019-05-15T07:42:10.223Z,1023.05
2019-05-15T07:43:10.187Z,1023.08
2019-05-15T07:44:10.195Z,1023.06
2019-05-15T07:45:10.159Z,1023.09
2019-05-15T07:46:10.148Z,1023.04
2019-05-15T07:47:10.153Z,1023.05
2019-05-15T07:48:10.152Z,1023.08
2019-05-15T07:49:10.135Z,1023.07
2019-05-15T07:50:10.113Z,1023.08
2019-05-15T07:51:11.355Z,1023.07
2019-05-15T07:52:10.087Z,1023.10
2019-05-15T07:53:10.068Z,1023.13
2019-05-15T07:54:10.067Z,1023.09
2019-05-15T07:55:10.047Z,1023.10
2019-05-15T07:56:11.791Z,1023.13
2019-05-15T07:57:10.027Z,1023.09
2019-05-15T07:58:10.039Z,1023.05
2019-05-15T07:59:10.038Z,1023.10
2019-05-15T08:00:09.990Z,1023.19
2019-05-15T08:01:10.298Z,1023.13
2019-05-15T08:02:09.966Z,1023.11
2019-05-15T08:03:10.484Z,1023.07
2019-05-15T08:04:24.866Z,1023.05
2019-05-15T08:05:10.946Z,1023.04
2019-05-15T08:06:09.957Z,1023.00
2019-05-15T08:07:09.912Z,1023.05
2019-05-15T08:08:09.942Z,1023.11
2019-05-15T08:09:09.896Z,1023.10
2019-05-15T08:10:09.890Z,1023.06
2019-05-15T08:11:20.407Z,1023.04
2019-05-15T08:12:10.853Z,1023.10
2019-05-15T08:13:09.849Z,1023.10
2019-05-15T08:14:09.845Z,1023.06
2019-05-15T08:15:09.844Z,1022.99
2019-05-15T08:16:09.812Z,1023.09
2019-05-15T08:17:09.815Z,1023.02
2019-05-15T08:18:12.923Z,1022.98
2019-05-15T08:19:09.780Z,1023.07
2019-05-15T08:20:09.778Z,1023.00
2019-05-15T08:21:09.776Z,1023.05
2019-05-15T08:22:09.743Z,1022.98
2019-05-15T08:23:09.732Z,1022.99
2019-05-15T08:24:09.722Z,1023.02
2019-05-15T08:25:13.088Z,1022.98
2019-05-15T08:26:10.719Z,1022.97
2019-05-15T08:27:09.709Z,1022.94
2019-05-15T08:28:09.699Z,1022.89
2019-05-15T08:29:09.669Z,1022.90
2019-05-15T08:30:09.652Z,1022.87
2019-05-15T08:31:10.375Z,1022.79
2019-05-15T08:32:09.666Z,1022.85
2019-05-15T08:33:09.621Z,1022.78
2019-05-15T08:34:15.995Z,1022.94
2019-05-15T08:35:12.651Z,1022.90
2019-05-15T08:36:09.582Z,1022.91
2019-05-15T08:37:09.574Z,1022.86
2019-05-15T08:38:09.567Z,1022.83
2019-05-15T08:39:09.607Z,1022.84
2019-05-15T08:40:09.549Z,1022.87
2019-05-15T08:41:11.594Z,1022.93
2019-05-15T08:42:09.522Z,1022.87
2019-05-15T08:43:11.517Z,1022.84
2019-05-15T08:44:09.509Z,1022.84
2019-05-15T08:45:09.492Z,1022.81
2019-05-15T08:46:09.476Z,1022.79
2019-05-15T08:47:09.495Z,1022.79
2019-05-15T08:48:09.496Z,1022.68
2019-05-15T08:49:09.496Z,1022.79
2019-05-15T08:50:09.447Z,1022.72
2019-05-15T08:51:09.419Z,1022.68
2019-05-15T08:52:10.110Z,1022.69
2019-05-15T08:53:09.431Z,1022.68
2019-05-15T08:54:09.398Z,1022.67
2019-05-15T08:55:09.387Z,1022.69
2019-05-15T08:56:09.365Z,1022.63
2019-05-15T08:57:09.352Z,1022.59
2019-05-15T08:58:13.932Z,1022.52
2019-05-15T08:59:09.331Z,1022.60
2019-05-15T09:00:09.970Z,1022.62
2019-05-15T09:01:09.933Z,1022.65
2019-05-15T09:02:09.299Z,1022.59
2019-05-15T09:03:09.297Z,1022.49
2019-05-15T09:04:09.279Z,1022.59
2019-05-15T09:05:09.275Z,1022.59
2019-05-15T09:06:09.423Z,1022.55
2019-05-15T09:07:09.433Z,1022.52
2019-05-15T09:08:09.441Z,1022.50
2019-05-15T09:09:09.759Z,1022.38
2019-05-15T09:10:09.299Z,1022.48
2019-05-15T09:11:09.591Z,1022.49
2019-05-15T09:12:09.190Z,1022.47
2019-05-15T09:13:09.734Z,1022.49
2019-05-15T09:14:09.187Z,1022.46
2019-05-15T09:15:09.160Z,1022.45
2019-05-15T09:16:09.168Z,1022.41
2019-05-15T09:17:09.130Z,1022.49
2019-05-15T09:18:15.856Z,1022.48
2019-05-15T09:19:10.118Z,1022.49
2019-05-15T09:20:09.145Z,1022.46
2019-05-15T09:21:09.122Z,1022.37
2019-05-15T09:22:09.303Z,1022.35
2019-05-15T09:23:09.134Z,1022.35
2019-05-15T09:24:09.587Z,1022.39
2019-05-15T09:25:09.192Z,1022.42
2019-05-15T09:26:09.434Z,1022.24
2019-05-15T09:27:10.226Z,1022.35
2019-05-15T09:28:09.065Z,1022.33
2019-05-15T09:29:09.442Z,1022.34
2019-05-15T09:30:08.991Z,1022.32
2019-05-15T09:31:08.976Z,1022.30
2019-05-15T09:32:12.437Z,1022.27
2019-05-15T09:33:08.953Z,1022.27
2019-05-15T09:34:09.266Z,1022.27
2019-05-15T09:35:08.931Z,1022.25
2019-05-15T09:36:09.241Z,1022.31
2019-05-15T09:37:08.911Z,1022.22
2019-05-15T09:38:08.909Z,1022.26
2019-05-15T09:39:08.889Z,1022.18
2019-05-15T09:40:09.148Z,1022.13
2019-05-15T09:41:09.268Z,1022.12
2019-05-15T09:42:08.858Z,1022.14
2019-05-15T09:43:10.867Z,1022.04
2019-05-15T09:44:08.848Z,1022.10
2019-05-15T09:45:09.119Z,1022.16
2019-05-15T09:46:10.484Z,1022.16
2019-05-15T09:47:09.259Z,1022.18
2019-05-15T09:48:10.168Z,1022.14
2019-05-15T09:49:09.006Z,1022.03
2019-05-15T09:50:08.776Z,1022.19
2019-05-15T09:51:09.437Z,1022.07
2019-05-15T09:52:09.071Z,1022.08
2019-05-15T09:53:09.347Z,1022.10
2019-05-15T09:54:08.727Z,1022.04
2019-05-15T09:55:08.837Z,1022.05
2019-05-15T09:56:08.699Z,1022.03
2019-05-15T09:57:10.678Z,1022.03
2019-05-15T09:58:08.697Z,1022.01
2019-05-15T09:59:09.131Z,1021.97
2019-05-15T10:00:09.067Z,1021.75
2019-05-15T10:01:08.738Z,1021.97
2019-05-15T10:02:09.200Z,1021.95
2019-05-15T10:03:09.565Z,1021.98
2019-05-15T10:04:08.622Z,1021.95
2019-05-15T10:05:11.333Z,1021.91
2019-05-15T10:06:08.590Z,1021.89
2019-05-15T10:07:08.591Z,1021.85
2019-05-15T10:08:09.116Z,1021.85
2019-05-15T10:09:09.188Z,1021.83
2019-05-15T10:10:08.851Z,1021.89
2019-05-15T10:11:09.162Z,1021.91
2019-05-15T10:12:09.230Z,1021.88
2019-05-15T10:13:09.117Z,1021.76
2019-05-15T10:14:09.744Z,1021.83
2019-05-15T10:15:11.343Z,1021.80
2019-05-15T10:16:08.665Z,1021.80
2019-05-15T10:17:09.258Z,1021.72
2019-05-15T10:18:09.926Z,1021.78
2019-05-15T10:19:08.994Z,1021.75
2019-05-15T10:20:09.128Z,1021.77
2019-05-15T10:21:09.104Z,1021.79
2019-05-15T10:22:09.753Z,1021.71
2019-05-15T10:23:08.910Z,1021.68
2019-05-15T10:24:09.463Z,1021.71
2019-05-15T10:25:08.508Z,1021.64
2019-05-15T10:26:13.924Z,1021.67
2019-05-15T10:27:09.442Z,1021.66
2019-05-15T10:28:09.961Z,1021.67
2019-05-15T10:29:09.166Z,1021.69
2019-05-15T10:30:09.202Z,1021.60
2019-05-15T10:31:09.473Z,1021.65
2019-05-15T10:32:08.731Z,1021.62
2019-05-15T10:33:08.642Z,1021.62
2019-05-15T10:34:09.211Z,1021.54
2019-05-15T10:35:24.024Z,1021.48
2019-05-15T10:36:09.255Z,1021.48
2019-05-15T10:37:08.482Z,1021.43
2019-05-15T10:38:08.973Z,1021.48
2019-05-15T10:39:08.537Z,1021.43
2019-05-15T10:40:09.073Z,1021.48
2019-05-15T10:41:11.267Z,1021.44
2019-05-15T10:42:09.185Z,1021.34
2019-05-15T10:43:09.129Z,1021.38
2019-05-15T10:44:09.162Z,1021.44
2019-05-15T10:45:08.438Z,1021.48
2019-05-15T10:46:13.048Z,1021.42
2019-05-15T10:47:09.130Z,1021.46
2019-05-15T10:48:09.355Z,1021.38
2019-05-15T10:49:08.802Z,1021.29
2019-05-15T10:50:08.111Z,1021.32
2019-05-15T10:51:10.136Z,1021.23
2019-05-15T10:52:08.772Z,1021.24
2019-05-15T10:53:10.971Z,1021.24
2019-05-15T10:54:08.545Z,1021.30
2019-05-15T10:55:09.143Z,1021.21
2019-05-15T10:56:08.946Z,1021.30
2019-05-15T10:57:08.734Z,1021.30
2019-05-15T10:58:14.136Z,1021.18
2019-05-15T10:59:09.003Z,1021.23
2019-05-15T11:00:08.043Z,1021.28
2019-05-15T11:01:19.213Z,1021.26
2019-05-15T11:02:08.599Z,1021.17
2019-05-15T11:03:08.906Z,1021.14
2019-05-15T11:04:09.068Z,1021.13
2019-05-15T11:05:09.323Z,1021.10
2019-05-15T11:06:09.015Z,1021.10
2019-05-15T11:07:09.827Z,1021.09
2019-05-15T11:08:08.425Z,1021.08
2019-05-15T11:09:08.646Z,1021.09
2019-05-15T11:10:08.594Z,1021.12
2019-05-15T11:11:09.210Z,1021.11
2019-05-15T11:12:08.729Z,1021.10
2019-05-15T11:13:08.947Z,1021.04
2019-05-15T11:14:09.188Z,1021.13
2019-05-15T11:15:11.001Z,1021.07
2019-05-15T11:16:07.836Z,1021.05
2019-05-15T11:17:07.800Z,1021.03
2019-05-15T11:18:09.277Z,1021.09
2019-05-15T11:19:08.091Z,1021.04
2019-05-15T11:20:08.482Z,1020.98
2019-05-15T11:21:08.256Z,1021.00
2019-05-15T11:22:09.070Z,1020.97
2019-05-15T11:23:08.153Z,1020.97
2019-05-15T11:24:08.784Z,1020.93
2019-05-15T11:25:09.963Z,1020.92
2019-05-15T11:26:08.757Z,1020.89
2019-05-15T11:27:09.942Z,1020.91
2019-05-15T11:28:08.279Z,1020.97
2019-05-15T11:29:09.645Z,1020.87
2019-05-15T11:30:07.795Z,1020.89
2019-05-15T11:31:10.336Z,1020.83
2019-05-15T11:32:08.846Z,1020.86
2019-05-15T11:33:09.611Z,1020.74
2019-05-15T11:34:09.366Z,1020.86
2019-05-15T11:35:07.597Z,1020.91
2019-05-15T11:36:07.587Z,1020.93
2019-05-15T11:37:07.594Z,1020.85
2019-05-15T11:38:10.068Z,1020.90
2019-05-15T11:39:08.364Z,1020.86
2019-05-15T11:40:09.925Z,1020.85
2019-05-15T11:41:08.678Z,1020.85
2019-05-15T11:42:08.854Z,1020.80
2019-05-15T11:43:08.532Z,1020.76
2019-05-15T11:44:07.497Z,1020.77
2019-05-15T11:45:07.492Z,1020.57
2019-05-15T11:46:09.957Z,1020.60
2019-05-15T11:47:07.470Z,1020.72
2019-05-15T11:48:09.113Z,1020.74
2019-05-15T11:49:09.384Z,1020.74
2019-05-15T11:50:08.372Z,1020.75
2019-05-15T11:51:09.565Z,1020.74
2019-05-15T11:52:08.702Z,1020.71
2019-05-15T11:53:08.715Z,1020.70
2019-05-15T11:54:08.242Z,1020.71
2019-05-15T11:55:08.294Z,1020.70
2019-05-15T11:56:09.467Z,1020.73
2019-05-15T11:57:08.578Z,1020.71
2019-05-15T11:58:09.301Z,1020.71
2019-05-15T11:59:08.541Z,1020.59
2019-05-15T12:00:14.971Z,1020.67
2019-05-15T12:01:08.764Z,1020.59
2019-05-15T12:02:08.558Z,1020.60
2019-05-15T12:03:08.967Z,1020.55
2019-05-15T12:04:09.189Z,1020.48
2019-05-15T12:05:09.174Z,1020.57